Main page
METAR-TAF:

METAR-TAF

Airports :

Kavala International Airport

Kavala, Greece

latitude: 40-59N, longitude: 024-36E, elevation: 5 m

Current weather observation

The report was made 16 minutes ago, at 15:20 UTC
Wind 3 kt from the Southeast
Temperature 21°C
Humidity 56%
Pressure 1016 hPa
Visibility 10 km or more
Few clouds at a height of 3000 ft

METAR: LGKV 171520Z 13003KT 9999 FEW030 21/12 Q1016

Time: 18:36 (15:36 UTC)

Forecast

The report was made 1 hour and 36 minutes ago, at 14:00 UTC
Forecast valid from 17 at 15 UTC to 17 at 24 UTC
Wind 5 kt from variable directions
Visibility 10 km or more
Few clouds at a height of 2000 ft

TAF: LGKV 171400Z 1715/1724 VRB05KT 9999 FEW020

Weather observations and forecasts of more than 4000 airports (METAR and TAF reports).

The available stations are represented by yellow and red dots on the map.

Hover mouse over dot to see the name of the station.

Then click to see weather observations and forecasts.

To change the map : click on the green buttons with a black cross to zoom in, on the green button with a dash to zoom out, or on the green arrows for adjacent maps.


METAR-TAF: